createdAt,value
2017-10-12T00:00:02.280Z,15.94
2017-10-12T00:01:02.233Z,15.96
2017-10-12T00:02:02.295Z,15.99
2017-10-12T00:03:02.193Z,15.97
2017-10-12T00:04:02.202Z,15.99
2017-10-12T00:05:02.141Z,15.92
2017-10-12T00:06:02.217Z,15.96
2017-10-12T00:07:02.095Z,15.88
2017-10-12T00:08:03.151Z,16.04
2017-10-12T00:09:02.045Z,16.00
2017-10-12T00:10:02.138Z,16.01
2017-10-12T00:11:02.000Z,16.11
2017-10-12T00:12:02.052Z,16.09
2017-10-12T00:13:01.953Z,16.14
2017-10-12T00:14:01.957Z,16.14
2017-10-12T00:15:01.915Z,16.11
2017-10-12T00:16:01.968Z,16.14
2017-10-12T00:17:01.860Z,16.18
2017-10-12T00:18:01.880Z,16.16
2017-10-12T00:19:01.814Z,16.16
2017-10-12T00:20:01.889Z,16.15
2017-10-12T00:21:01.768Z,16.18
2017-10-12T00:22:01.801Z,16.14
2017-10-12T00:23:01.720Z,16.22
2017-10-12T00:24:01.813Z,16.09
2017-10-12T00:25:01.675Z,16.09
2017-10-12T00:26:01.724Z,16.15
2017-10-12T00:27:01.629Z,16.14
2017-10-12T00:28:01.636Z,16.11
2017-10-12T00:29:01.591Z,16.23
2017-10-12T00:30:01.648Z,16.25
2017-10-12T00:31:01.534Z,16.22
2017-10-12T00:32:01.558Z,16.27
2017-10-12T00:33:01.488Z,16.18
2017-10-12T00:34:01.575Z,16.22
2017-10-12T00:35:01.460Z,16.27
2017-10-12T00:36:01.490Z,16.22
2017-10-12T00:37:01.399Z,16.31
2017-10-12T00:38:01.386Z,16.26
2017-10-12T00:39:01.355Z,16.27
2017-10-12T00:40:01.401Z,16.33
2017-10-12T00:41:01.303Z,16.40
2017-10-12T00:42:01.311Z,16.37
2017-10-12T00:43:01.261Z,16.35
2017-10-12T00:44:01.322Z,16.37
2017-10-12T00:45:01.216Z,16.26
2017-10-12T00:46:01.231Z,16.35
2017-10-12T00:47:01.171Z,16.34
2017-10-12T00:48:01.245Z,16.27
2017-10-12T00:49:01.129Z,16.34
2017-10-12T00:50:01.152Z,16.26
2017-10-12T00:51:01.078Z,16.40
2017-10-12T00:52:01.065Z,16.35
2017-10-12T00:53:01.027Z,16.40
2017-10-12T00:54:01.078Z,16.37
2017-10-12T00:55:00.983Z,16.41
2017-10-12T00:56:00.993Z,16.40
2017-10-12T00:57:00.937Z,16.38
2017-10-12T00:58:01.002Z,16.30
2017-10-12T00:59:00.892Z,16.20
2017-10-12T01:00:00.920Z,16.27
2017-10-12T01:01:00.845Z,16.22
2017-10-12T01:02:00.927Z,16.12
2017-10-12T01:03:00.803Z,16.11
2017-10-12T01:04:00.834Z,15.99
2017-10-12T01:05:00.750Z,16.01
2017-10-12T01:06:00.743Z,15.96
2017-10-12T01:07:00.706Z,15.93
2017-10-12T01:08:00.758Z,15.86
2017-10-12T01:09:00.665Z,15.86
2017-10-12T01:10:00.673Z,15.84
2017-10-12T01:11:00.628Z,15.84
2017-10-12T01:12:00.686Z,15.82
2017-10-12T01:13:00.570Z,15.79
2017-10-12T01:14:00.589Z,15.76
2017-10-12T01:15:00.526Z,15.75
2017-10-12T01:16:00.607Z,15.66
2017-10-12T01:17:00.482Z,15.66
2017-10-12T01:18:00.511Z,15.68
2017-10-12T01:19:00.428Z,15.76
2017-10-12T01:20:00.434Z,15.78
2017-10-12T01:21:00.386Z,15.84
2017-10-12T01:22:00.434Z,15.92
2017-10-12T01:23:00.336Z,15.89
2017-10-12T01:24:00.344Z,15.92
2017-10-12T01:25:00.290Z,15.99
2017-10-12T01:26:00.357Z,15.96
2017-10-12T01:27:00.247Z,15.92
2017-10-12T01:28:00.265Z,16.01
2017-10-12T01:29:00.196Z,15.86
2017-10-12T01:30:00.282Z,15.88
2017-10-12T01:31:00.169Z,15.85
2017-10-12T01:32:00.191Z,15.89
2017-10-12T01:33:00.114Z,15.88
2017-10-12T01:34:00.098Z,15.76
2017-10-12T01:35:00.062Z,15.61
2017-10-12T01:36:00.113Z,15.68
2017-10-12T01:37:00.015Z,15.67
2017-10-12T01:38:00.023Z,15.57
2017-10-12T01:38:59.966Z,15.51
2017-10-12T01:40:00.035Z,15.54
2017-10-12T01:40:59.923Z,15.52
2017-10-12T01:41:59.944Z,15.51
2017-10-12T01:42:59.875Z,15.52
2017-10-12T01:43:59.958Z,15.51
2017-10-12T01:44:59.826Z,15.51
2017-10-12T01:45:59.865Z,15.45
2017-10-12T01:46:59.782Z,15.54
2017-10-12T01:47:59.877Z,15.51
2017-10-12T01:48:59.731Z,15.52
2017-10-12T01:49:59.792Z,15.54
2017-10-12T01:50:59.687Z,15.52
2017-10-12T01:51:59.698Z,15.51
2017-10-12T01:52:59.644Z,15.54
2017-10-12T01:53:59.713Z,15.49
2017-10-12T01:54:59.593Z,15.51
2017-10-12T01:55:59.620Z,15.51
2017-10-12T01:56:59.545Z,15.51
2017-10-12T01:57:59.635Z,15.51
2017-10-12T01:58:59.501Z,15.46
2017-10-12T01:59:59.544Z,15.48
2017-10-12T02:00:59.456Z,15.54
2017-10-12T02:01:59.453Z,15.43
2017-10-12T02:02:59.420Z,15.54
2017-10-12T02:03:59.462Z,15.49
2017-10-12T02:04:59.362Z,15.57
2017-10-12T02:05:59.377Z,15.60
2017-10-12T02:06:59.314Z,15.56
2017-10-12T02:07:59.390Z,15.57
2017-10-12T02:08:59.269Z,15.54
2017-10-12T02:09:59.305Z,15.59
2017-10-12T02:10:59.220Z,15.52
2017-10-12T02:11:59.316Z,15.60
2017-10-12T02:12:59.187Z,15.56
2017-10-12T02:13:59.220Z,15.52
2017-10-12T02:14:59.127Z,15.42
2017-10-12T02:15:59.137Z,15.51
2017-10-12T02:16:59.085Z,15.51
2017-10-12T02:17:59.150Z,15.48
2017-10-12T02:18:59.031Z,15.43
2017-10-12T02:19:59.058Z,15.43
2017-10-12T02:20:58.983Z,15.46
2017-10-12T02:21:59.069Z,15.42
2017-10-12T02:22:58.939Z,15.42
2017-10-12T02:23:58.980Z,15.46
2017-10-12T02:24:58.892Z,15.43
2017-10-12T02:25:58.891Z,15.42
2017-10-12T02:26:58.846Z,15.36
2017-10-12T02:27:58.903Z,15.41
2017-10-12T02:28:58.803Z,15.39
2017-10-12T02:29:58.815Z,15.45
2017-10-12T02:30:58.756Z,15.35
2017-10-12T02:31:58.817Z,15.43
2017-10-12T02:32:58.703Z,15.39
2017-10-12T02:33:58.733Z,15.43
2017-10-12T02:34:58.667Z,15.46
2017-10-12T02:35:58.741Z,15.46
2017-10-12T02:36:58.613Z,15.42
2017-10-12T02:37:58.657Z,15.48
2017-10-12T02:38:58.570Z,15.43
2017-10-12T02:39:58.562Z,15.43
2017-10-12T02:40:58.518Z,15.42
2017-10-12T02:41:58.576Z,15.43
2017-10-12T02:42:58.471Z,15.43
2017-10-12T02:43:58.486Z,15.46
2017-10-12T02:44:58.427Z,15.45
2017-10-12T02:45:58.500Z,15.45
2017-10-12T02:46:58.379Z,15.42
2017-10-12T02:47:58.405Z,15.41
2017-10-12T02:48:58.337Z,15.43
2017-10-12T02:49:58.419Z,15.45
2017-10-12T02:50:58.283Z,15.43
2017-10-12T02:51:58.330Z,15.42
2017-10-12T02:52:58.234Z,15.41
2017-10-12T02:53:58.244Z,15.41
2017-10-12T02:54:58.193Z,15.43
2017-10-12T02:55:58.252Z,15.41
2017-10-12T02:56:58.141Z,15.41
2017-10-12T02:57:58.165Z,15.36
2017-10-12T02:58:58.102Z,15.31
2017-10-12T02:59:58.179Z,15.43
2017-10-12T03:00:58.047Z,15.42
2017-10-12T03:01:58.086Z,15.24
2017-10-12T03:02:57.999Z,15.35
2017-10-12T03:03:57.996Z,15.27
2017-10-12T03:04:57.959Z,15.31
2017-10-12T03:05:58.010Z,15.41
2017-10-12T03:06:57.906Z,15.41
2017-10-12T03:07:57.923Z,15.38
2017-10-12T03:08:57.861Z,15.39
2017-10-12T03:09:57.930Z,15.46
2017-10-12T03:10:57.816Z,15.23
2017-10-12T03:11:57.840Z,15.49
2017-10-12T03:12:57.768Z,15.39
2017-10-12T03:13:57.851Z,15.38
2017-10-12T03:14:57.723Z,15.33
2017-10-12T03:15:57.759Z,15.36
2017-10-12T03:16:57.672Z,15.28
2017-10-12T03:17:57.673Z,15.35
2017-10-12T03:18:57.629Z,15.43
2017-10-12T03:19:57.685Z,15.46
2017-10-12T03:20:57.580Z,15.43
2017-10-12T03:21:57.598Z,15.43
2017-10-12T03:22:57.535Z,15.36
2017-10-12T03:23:57.609Z,15.35
2017-10-12T03:24:57.486Z,15.42
2017-10-12T03:25:57.520Z,15.36
2017-10-12T03:26:57.437Z,15.38
2017-10-12T03:27:57.451Z,15.36
2017-10-12T03:28:57.394Z,15.39
2017-10-12T03:29:57.442Z,15.36
2017-10-12T03:30:57.349Z,15.41
2017-10-12T03:31:57.357Z,15.45
2017-10-12T03:32:57.297Z,15.36
2017-10-12T03:33:57.367Z,15.39
2017-10-12T03:34:57.250Z,15.36
2017-10-12T03:35:57.278Z,15.39
2017-10-12T03:36:57.210Z,15.31
2017-10-12T03:37:57.283Z,15.45
2017-10-12T03:38:57.159Z,15.38
2017-10-12T03:39:57.197Z,15.36
2017-10-12T03:40:57.110Z,15.43
2017-10-12T03:41:57.114Z,15.39
2017-10-12T03:42:57.068Z,15.36
2017-10-12T03:43:57.121Z,15.33
2017-10-12T03:44:57.016Z,15.41
2017-10-12T03:45:57.030Z,15.28
2017-10-12T03:46:56.982Z,15.31
2017-10-12T03:47:57.040Z,15.31
2017-10-12T03:48:56.924Z,15.24
2017-10-12T03:49:56.948Z,15.24
2017-10-12T03:50:56.876Z,15.27
2017-10-12T03:51:56.963Z,15.33
2017-10-12T03:52:56.831Z,15.26
2017-10-12T03:53:56.879Z,15.35
2017-10-12T03:54:56.794Z,15.35
2017-10-12T03:55:56.782Z,15.31
2017-10-12T03:56:56.740Z,15.21
2017-10-12T03:57:56.794Z,15.26
2017-10-12T03:58:56.691Z,15.21
2017-10-12T03:59:56.711Z,15.26
2017-10-12T04:00:56.644Z,15.20
2017-10-12T04:01:56.719Z,15.15
2017-10-12T04:02:56.594Z,15.11
2017-10-12T04:03:56.629Z,15.13
2017-10-12T04:04:56.622Z,15.21
2017-10-12T04:05:56.537Z,15.09
2017-10-12T04:06:56.503Z,15.08
2017-10-12T04:07:56.550Z,15.06
2017-10-12T04:08:56.471Z,14.95
2017-10-12T04:09:56.462Z,15.03
2017-10-12T04:10:56.407Z,15.11
2017-10-12T04:11:56.469Z,15.06
2017-10-12T04:12:56.359Z,15.08
2017-10-12T04:13:56.392Z,15.08
2017-10-12T04:14:56.315Z,15.11
2017-10-12T04:15:56.398Z,15.03
2017-10-12T04:16:56.269Z,15.11
2017-10-12T04:17:56.306Z,15.06
2017-10-12T04:18:56.223Z,15.17
2017-10-12T04:19:56.215Z,15.15
2017-10-12T04:20:56.172Z,15.19
2017-10-12T04:21:56.227Z,15.13
2017-10-12T04:22:56.126Z,15.17
2017-10-12T04:23:56.138Z,15.17
2017-10-12T04:24:56.080Z,15.13
2017-10-12T04:25:56.150Z,15.27
2017-10-12T04:26:56.030Z,15.31
2017-10-12T04:27:56.057Z,15.28
2017-10-12T04:28:55.988Z,15.28
2017-10-12T04:29:56.073Z,15.35
2017-10-12T04:30:55.947Z,15.33
2017-10-12T04:31:55.982Z,15.35
2017-10-12T04:32:55.896Z,15.26
2017-10-12T04:33:55.891Z,15.33
2017-10-12T04:34:55.849Z,15.24
2017-10-12T04:35:55.902Z,15.23
2017-10-12T04:36:55.807Z,15.30
2017-10-12T04:37:55.815Z,15.20
2017-10-12T04:38:55.755Z,15.24
2017-10-12T04:39:55.828Z,15.23
2017-10-12T04:40:55.711Z,15.21
2017-10-12T04:41:55.738Z,15.13
2017-10-12T04:42:55.669Z,15.19
2017-10-12T04:43:55.748Z,15.15
2017-10-12T04:44:55.611Z,15.11
2017-10-12T04:45:55.662Z,15.15
2017-10-12T04:46:55.568Z,15.11
2017-10-12T04:47:55.569Z,15.08
2017-10-12T04:48:55.520Z,15.08
2017-10-12T04:49:55.580Z,15.01
2017-10-12T04:50:55.476Z,14.93
2017-10-12T04:51:55.491Z,15.01
2017-10-12T04:52:55.425Z,14.95
2017-10-12T04:53:55.506Z,14.91
2017-10-12T04:54:55.376Z,14.87
2017-10-12T04:55:55.415Z,14.87
2017-10-12T04:56:55.330Z,14.83
2017-10-12T04:57:55.331Z,14.83
2017-10-12T04:58:55.286Z,14.80
2017-10-12T04:59:55.336Z,14.75
2017-10-12T05:00:55.237Z,14.65
2017-10-12T05:01:55.246Z,14.75
2017-10-12T05:02:55.190Z,14.67
2017-10-12T05:03:55.262Z,14.60
2017-10-12T05:04:55.139Z,14.64
2017-10-12T05:05:55.173Z,14.53
2017-10-12T05:06:55.097Z,14.54
2017-10-12T05:07:55.183Z,14.49
2017-10-12T05:08:55.049Z,14.50
2017-10-12T05:09:55.098Z,14.38
2017-10-12T05:10:54.999Z,14.38
2017-10-12T05:11:55.008Z,14.35
2017-10-12T05:12:54.950Z,14.25
2017-10-12T05:13:55.020Z,14.34
2017-10-12T05:14:54.906Z,14.21
2017-10-12T05:15:54.931Z,14.21
2017-10-12T05:16:54.861Z,14.34
2017-10-12T05:17:54.942Z,14.29
2017-10-12T05:18:54.812Z,14.25
2017-10-12T05:19:54.860Z,14.29
2017-10-12T05:20:54.759Z,14.21
2017-10-12T05:21:54.765Z,14.19
2017-10-12T05:22:54.715Z,14.19
2017-10-12T05:23:54.774Z,14.19
2017-10-12T05:24:54.665Z,14.13
2017-10-12T05:25:54.688Z,14.19
2017-10-12T05:26:54.619Z,14.09
2017-10-12T05:27:54.692Z,14.04
2017-10-12T05:28:54.571Z,14.09
2017-10-12T05:29:54.603Z,14.10
2017-10-12T05:30:54.531Z,14.07
2017-10-12T05:31:54.613Z,14.02
2017-10-12T05:32:54.472Z,14.01
2017-10-12T05:33:54.530Z,13.99
2017-10-12T05:34:54.429Z,13.91
2017-10-12T05:35:54.433Z,13.95
2017-10-12T05:36:54.380Z,13.91
2017-10-12T05:37:54.446Z,13.94
2017-10-12T05:38:54.333Z,13.94
2017-10-12T05:39:54.358Z,13.89
2017-10-12T05:40:54.286Z,13.88
2017-10-12T05:41:54.369Z,13.88
2017-10-12T05:42:54.233Z,13.83
2017-10-12T05:43:54.278Z,13.79
2017-10-12T05:44:54.184Z,13.87
2017-10-12T05:45:54.189Z,13.81
2017-10-12T05:46:54.142Z,13.87
2017-10-12T05:47:54.202Z,13.84
2017-10-12T05:48:54.094Z,13.76
2017-10-12T05:49:54.112Z,13.79
2017-10-12T05:50:54.046Z,13.74
2017-10-12T05:51:54.125Z,13.73
2017-10-12T05:52:54.000Z,13.67
2017-10-12T05:53:54.035Z,13.80
2017-10-12T05:54:53.947Z,13.67
2017-10-12T05:55:53.941Z,13.76
2017-10-12T05:56:53.899Z,13.70
2017-10-12T05:57:53.957Z,13.70
2017-10-12T05:58:53.852Z,13.67
2017-10-12T05:59:53.866Z,13.63
2017-10-12T06:00:53.801Z,13.51
2017-10-12T06:01:53.882Z,13.56
2017-10-12T06:02:53.751Z,13.55
2017-10-12T06:03:53.791Z,13.52
2017-10-12T06:04:53.704Z,13.46
2017-10-12T06:05:53.705Z,13.51
2017-10-12T06:06:53.654Z,13.43
2017-10-12T06:07:53.717Z,13.54
2017-10-12T06:08:53.608Z,13.55
2017-10-12T06:09:53.620Z,13.52
2017-10-12T06:10:53.561Z,13.54
2017-10-12T06:11:53.634Z,13.54
2017-10-12T06:12:53.511Z,13.55
2017-10-12T06:13:53.543Z,13.49
2017-10-12T06:14:53.457Z,13.59
2017-10-12T06:15:53.455Z,13.55
2017-10-12T06:16:53.412Z,13.56
2017-10-12T06:17:53.473Z,13.51
2017-10-12T06:18:53.380Z,13.51
2017-10-12T06:19:53.375Z,13.51
2017-10-12T06:20:53.315Z,13.55
2017-10-12T06:21:53.389Z,13.54
2017-10-12T06:22:53.268Z,13.59
2017-10-12T06:23:53.299Z,13.55
2017-10-12T06:24:53.215Z,13.49
2017-10-12T06:25:53.213Z,13.59
2017-10-12T06:26:53.174Z,13.58
2017-10-12T06:27:53.224Z,13.55
2017-10-12T06:28:53.134Z,13.49
2017-10-12T06:29:53.134Z,13.52
2017-10-12T06:30:53.071Z,13.51
2017-10-12T06:31:53.147Z,13.55
2017-10-12T06:32:53.021Z,13.55
2017-10-12T06:33:53.059Z,13.54
2017-10-12T06:34:52.977Z,13.67
2017-10-12T06:35:52.971Z,13.54
2017-10-12T06:36:52.925Z,13.52
2017-10-12T06:37:52.975Z,13.54
2017-10-12T06:38:52.875Z,13.55
2017-10-12T06:39:52.889Z,13.58
2017-10-12T06:40:52.827Z,13.54
2017-10-12T06:41:52.902Z,13.67
2017-10-12T06:42:52.784Z,13.62
2017-10-12T06:43:52.810Z,13.55
2017-10-12T06:44:52.727Z,13.58
2017-10-12T06:45:52.720Z,13.62
2017-10-12T06:46:52.683Z,13.52
2017-10-12T06:47:52.748Z,13.59
2017-10-12T06:48:52.633Z,13.59
2017-10-12T06:49:52.653Z,13.58
2017-10-12T06:50:52.584Z,13.56
2017-10-12T06:51:52.654Z,13.67
2017-10-12T06:52:52.535Z,13.70
2017-10-12T06:53:52.569Z,13.70
2017-10-12T06:54:52.487Z,13.70
2017-10-12T06:55:52.476Z,13.69
2017-10-12T06:56:52.438Z,13.77
2017-10-12T06:57:52.491Z,13.81
2017-10-12T06:58:52.397Z,13.80
2017-10-12T06:59:52.399Z,13.77
2017-10-12T07:00:52.339Z,13.79
2017-10-12T07:01:52.411Z,13.88
2017-10-12T07:02:52.291Z,13.84
2017-10-12T07:03:52.321Z,13.91
2017-10-12T07:04:52.246Z,13.88
2017-10-12T07:05:52.233Z,13.76
2017-10-12T07:06:52.194Z,13.91
2017-10-12T07:07:52.242Z,13.94
2017-10-12T07:08:52.205Z,13.92
2017-10-12T07:09:52.154Z,13.95
2017-10-12T07:10:52.097Z,13.95
2017-10-12T07:11:52.166Z,13.98
2017-10-12T07:12:52.054Z,13.99
2017-10-12T07:13:52.019Z,13.94
2017-10-12T07:14:52.002Z,13.95
2017-10-12T07:15:52.116Z,13.95
2017-10-12T07:16:51.949Z,14.01
2017-10-12T07:17:51.999Z,13.98
2017-10-12T07:18:52.035Z,14.04
2017-10-12T07:19:51.879Z,14.14
2017-10-12T07:20:51.947Z,14.12
2017-10-12T07:21:51.826Z,14.14
2017-10-12T07:22:51.824Z,14.14
2017-10-12T07:23:51.779Z,14.09
2017-10-12T07:24:51.871Z,14.12
2017-10-12T07:25:51.728Z,14.14
2017-10-12T07:26:51.786Z,14.19
2017-10-12T07:27:51.685Z,14.13
2017-10-12T07:28:51.796Z,14.19
2017-10-12T07:29:51.637Z,14.21
2017-10-12T07:30:51.708Z,14.17
2017-10-12T07:31:51.588Z,14.27
2017-10-12T07:32:51.618Z,14.14
2017-10-12T07:33:51.539Z,14.27
2017-10-12T07:34:51.634Z,14.25
2017-10-12T07:35:51.489Z,14.35
2017-10-12T07:36:51.543Z,14.29
2017-10-12T07:37:51.445Z,14.27
2017-10-12T07:38:51.558Z,14.28
2017-10-12T07:39:51.397Z,14.31
2017-10-12T07:40:51.473Z,14.50
2017-10-12T07:41:51.346Z,14.44
2017-10-12T07:42:51.380Z,14.50
2017-10-12T07:43:51.298Z,14.44
2017-10-12T07:44:51.393Z,14.65
2017-10-12T07:45:51.250Z,14.53
2017-10-12T07:46:51.307Z,14.57
2017-10-12T07:47:51.205Z,14.60
2017-10-12T07:48:51.318Z,14.64
2017-10-12T07:49:51.158Z,14.54
2017-10-12T07:50:51.230Z,14.62
2017-10-12T07:51:51.109Z,14.52
2017-10-12T07:52:51.245Z,14.44
2017-10-12T07:53:51.057Z,14.46
2017-10-12T07:54:51.156Z,14.52
2017-10-12T07:55:51.013Z,14.44
2017-10-12T07:56:51.067Z,14.49
2017-10-12T07:57:50.958Z,14.53
2017-10-12T07:58:51.084Z,14.42
2017-10-12T07:59:50.917Z,14.49
2017-10-12T08:00:50.995Z,14.47
2017-10-12T08:01:50.868Z,14.47
2017-10-12T08:02:51.007Z,14.46
2017-10-12T08:03:50.819Z,14.50
2017-10-12T08:04:50.918Z,14.52
2017-10-12T08:05:50.777Z,14.56
2017-10-12T08:06:50.833Z,14.61
2017-10-12T08:07:50.726Z,14.61
2017-10-12T08:08:50.844Z,14.67
2017-10-12T08:09:50.680Z,14.83
2017-10-12T08:10:50.752Z,14.94
2017-10-12T08:11:50.633Z,14.78
2017-10-12T08:12:50.781Z,14.87
2017-10-12T08:13:50.580Z,14.86
2017-10-12T08:14:50.679Z,14.84
2017-10-12T08:15:50.533Z,14.93
2017-10-12T08:16:50.590Z,14.95
2017-10-12T08:17:50.488Z,15.01
2017-10-12T08:18:50.607Z,15.03
2017-10-12T08:19:50.440Z,15.08
2017-10-12T08:20:50.519Z,14.98
2017-10-12T08:21:50.392Z,14.98
2017-10-12T08:22:50.533Z,14.93
2017-10-12T08:23:50.344Z,14.95
2017-10-12T08:24:50.448Z,14.90
2017-10-12T08:25:50.299Z,14.80
2017-10-12T08:26:50.386Z,14.81
2017-10-12T08:27:50.250Z,14.80
2017-10-12T08:28:50.366Z,14.81
2017-10-12T08:29:50.203Z,14.80
2017-10-12T08:30:50.281Z,14.80
2017-10-12T08:31:50.156Z,14.91
2017-10-12T08:32:50.295Z,14.95
2017-10-12T08:33:50.107Z,15.01
2017-10-12T08:34:50.206Z,15.06
2017-10-12T08:35:50.065Z,15.19
2017-10-12T08:36:50.222Z,15.26
2017-10-12T08:37:50.015Z,15.39
2017-10-12T08:38:51.157Z,15.31
2017-10-12T08:39:49.968Z,15.28
2017-10-12T08:40:50.145Z,15.39
2017-10-12T08:41:49.920Z,15.26
2017-10-12T08:42:50.057Z,15.27
2017-10-12T08:43:49.870Z,15.35
2017-10-12T08:44:49.967Z,15.38
2017-10-12T08:45:49.825Z,15.43
2017-10-12T08:46:49.980Z,15.36
2017-10-12T08:47:49.780Z,15.45
2017-10-12T08:48:49.893Z,15.41
2017-10-12T08:49:49.735Z,15.39
2017-10-12T08:50:49.908Z,15.46
2017-10-12T08:51:49.686Z,15.46
2017-10-12T08:52:49.820Z,15.59
2017-10-12T08:53:49.650Z,15.68
2017-10-12T08:54:49.731Z,15.68
2017-10-12T08:55:49.595Z,15.74
2017-10-12T08:56:49.743Z,15.79
2017-10-12T08:57:49.548Z,15.82
2017-10-12T08:58:49.657Z,15.89
2017-10-12T08:59:49.503Z,15.79
2017-10-12T09:00:49.670Z,15.74
2017-10-12T09:01:49.459Z,15.84
2017-10-12T09:02:49.580Z,15.81
2017-10-12T09:03:49.408Z,16.11
2017-10-12T09:04:49.597Z,16.09
2017-10-12T09:05:49.362Z,16.58
2017-10-12T09:06:49.506Z,17.33
2017-10-12T09:07:49.319Z,17.13
2017-10-12T09:08:49.418Z,16.75
2017-10-12T09:09:49.269Z,16.49
2017-10-12T09:10:49.330Z,17.11
2017-10-12T09:11:49.223Z,17.51
2017-10-12T09:12:49.241Z,17.29
2017-10-12T09:13:49.177Z,17.15
2017-10-12T09:14:49.255Z,17.67
2017-10-12T09:15:49.136Z,18.02
2017-10-12T09:16:49.167Z,18.21
2017-10-12T09:17:49.090Z,18.73
2017-10-12T09:18:49.180Z,19.51
2017-10-12T09:19:49.043Z,19.01
2017-10-12T09:20:49.091Z,19.01
2017-10-12T09:21:48.997Z,19.86
2017-10-12T09:22:49.104Z,19.72
2017-10-12T09:23:48.959Z,19.48
2017-10-12T09:24:49.014Z,19.68
2017-10-12T09:25:48.917Z,19.05
2017-10-12T09:26:48.926Z,19.23
2017-10-12T09:27:48.868Z,19.54
2017-10-12T09:28:48.941Z,19.87
2017-10-12T09:29:48.831Z,20.20
2017-10-12T09:30:48.855Z,20.71
2017-10-12T09:31:48.791Z,20.59
2017-10-12T09:32:48.866Z,20.34
2017-10-12T09:33:48.755Z,20.53
2017-10-12T09:34:48.778Z,20.59
2017-10-12T09:35:48.709Z,20.59
2017-10-12T09:36:48.793Z,20.59
2017-10-12T09:37:48.668Z,20.66
2017-10-12T09:38:48.701Z,20.05
2017-10-12T09:39:48.627Z,20.27
2017-10-12T09:40:48.715Z,19.94
2017-10-12T09:41:48.599Z,20.06
2017-10-12T09:42:48.628Z,20.23
2017-10-12T09:43:48.551Z,20.42
2017-10-12T09:44:48.641Z,20.23
2017-10-12T09:45:48.515Z,20.95
2017-10-12T09:46:48.554Z,20.61
2017-10-12T09:47:48.475Z,20.34
2017-10-12T09:48:48.565Z,20.41
2017-10-12T09:49:48.439Z,20.65
2017-10-12T09:50:48.479Z,19.90
2017-10-12T09:51:48.401Z,19.53
2017-10-12T09:52:48.491Z,19.31
2017-10-12T09:53:48.364Z,18.95
2017-10-12T09:54:48.403Z,18.62
2017-10-12T09:55:48.330Z,18.67
2017-10-12T09:56:48.420Z,19.10
2017-10-12T09:57:48.291Z,18.61
2017-10-12T09:58:48.328Z,17.97
2017-10-12T09:59:48.250Z,17.82
2017-10-12T10:00:48.341Z,17.85
2017-10-12T10:01:48.216Z,18.29
2017-10-12T10:02:48.258Z,18.40
2017-10-12T10:03:48.172Z,18.65
2017-10-12T10:04:48.270Z,18.58
2017-10-12T10:05:48.135Z,18.72
2017-10-12T10:06:48.179Z,18.87
2017-10-12T10:07:48.096Z,18.68
2017-10-12T10:08:48.194Z,18.47
2017-10-12T10:09:48.059Z,18.36
2017-10-12T10:10:48.105Z,18.73
2017-10-12T10:11:48.020Z,18.49
2017-10-12T10:12:48.116Z,18.37
2017-10-12T10:13:47.980Z,18.46
2017-10-12T10:14:48.028Z,18.37
2017-10-12T10:15:47.943Z,18.67
2017-10-12T10:16:48.044Z,18.64
2017-10-12T10:17:47.897Z,18.61
2017-10-12T10:18:47.954Z,18.28
2017-10-12T10:19:47.865Z,18.09
2017-10-12T10:20:47.970Z,17.82
2017-10-12T10:21:47.824Z,17.95
2017-10-12T10:22:47.883Z,17.84
2017-10-12T10:23:47.780Z,17.82
2017-10-12T10:24:47.898Z,17.82
2017-10-12T10:25:47.749Z,17.73
2017-10-12T10:26:47.804Z,17.71
2017-10-12T10:27:47.704Z,17.64
2017-10-12T10:28:47.820Z,17.30
2017-10-12T10:29:47.661Z,17.38
2017-10-12T10:30:47.731Z,17.35
2017-10-12T10:31:47.636Z,17.29
2017-10-12T10:32:47.742Z,17.41
2017-10-12T10:33:47.581Z,17.51
2017-10-12T10:34:47.657Z,17.44
2017-10-12T10:35:47.537Z,17.59
2017-10-12T10:36:47.668Z,17.43
2017-10-12T10:37:47.502Z,17.50
2017-10-12T10:38:47.584Z,18.02
2017-10-12T10:39:47.456Z,17.92
2017-10-12T10:40:47.598Z,17.92
2017-10-12T10:41:47.417Z,17.79
2017-10-12T10:42:47.509Z,17.87
2017-10-12T10:43:47.374Z,17.78
2017-10-12T10:44:47.525Z,17.57
2017-10-12T10:45:47.334Z,17.70
2017-10-12T10:46:47.434Z,18.77
2017-10-12T10:47:47.292Z,19.60
2017-10-12T10:48:47.444Z,20.30
2017-10-12T10:49:47.256Z,20.24
2017-10-12T10:50:47.358Z,21.05
2017-10-12T10:51:47.211Z,20.76
2017-10-12T10:52:47.373Z,21.56
2017-10-12T10:53:47.170Z,22.10
2017-10-12T10:54:47.286Z,22.27
2017-10-12T10:55:47.132Z,22.28
2017-10-12T10:56:47.298Z,22.52
2017-10-12T10:57:47.128Z,22.50
2017-10-12T10:58:47.214Z,22.50
2017-10-12T10:59:47.054Z,22.34
2017-10-12T11:00:47.223Z,22.99
2017-10-12T11:01:47.014Z,23.07
2017-10-12T11:02:47.136Z,23.77
2017-10-12T11:03:46.979Z,23.72
2017-10-12T11:04:47.151Z,23.57
2017-10-12T11:05:46.941Z,22.74
2017-10-12T11:06:47.064Z,22.10
2017-10-12T11:07:46.908Z,21.57
2017-10-12T11:08:47.077Z,21.60
2017-10-12T11:09:46.870Z,20.65
2017-10-12T11:10:46.993Z,20.20
2017-10-12T11:11:46.839Z,19.97
2017-10-12T11:12:47.004Z,19.79
2017-10-12T11:13:46.804Z,19.66
2017-10-12T11:14:46.921Z,19.65
2017-10-12T11:15:46.767Z,19.69
2017-10-12T11:16:46.928Z,19.38
2017-10-12T11:17:46.731Z,19.24
2017-10-12T11:18:46.846Z,19.54
2017-10-12T11:19:46.690Z,19.78
2017-10-12T11:20:46.860Z,19.75
2017-10-12T11:21:46.661Z,19.78
2017-10-12T11:22:46.769Z,19.53
2017-10-12T11:23:46.624Z,19.50
2017-10-12T11:24:46.780Z,19.68
2017-10-12T11:25:46.584Z,20.08
2017-10-12T11:26:46.694Z,20.58
2017-10-12T11:27:46.554Z,20.87
2017-10-12T11:28:46.709Z,21.39
2017-10-12T11:29:46.511Z,20.89
2017-10-12T11:30:46.619Z,21.17
2017-10-12T11:31:46.479Z,21.32
2017-10-12T11:32:46.633Z,20.76
2017-10-12T11:33:46.437Z,20.58
2017-10-12T11:34:46.531Z,20.18
2017-10-12T11:35:46.402Z,20.05
2017-10-12T11:36:46.451Z,19.87
2017-10-12T11:37:46.362Z,19.98
2017-10-12T11:38:46.471Z,20.05
2017-10-12T11:39:46.329Z,20.30
2017-10-12T11:40:46.376Z,20.25
2017-10-12T11:41:46.296Z,20.05
2017-10-12T11:42:46.393Z,20.25
2017-10-12T11:43:46.255Z,20.16
2017-10-12T11:44:46.305Z,20.49
2017-10-12T11:45:46.220Z,20.61
2017-10-12T11:46:46.315Z,20.08
2017-10-12T11:47:46.191Z,20.28
2017-10-12T11:48:46.244Z,20.59
2017-10-12T11:49:46.145Z,21.08
2017-10-12T11:50:46.242Z,21.76
2017-10-12T11:51:46.112Z,21.99
2017-10-12T11:52:46.150Z,21.81
2017-10-12T11:53:46.076Z,21.91
2017-10-12T11:54:46.167Z,22.14
2017-10-12T11:55:46.038Z,22.38
2017-10-12T11:56:46.079Z,22.27
2017-10-12T11:57:46.003Z,21.74
2017-10-12T11:58:46.088Z,21.91
2017-10-12T11:59:45.968Z,21.59
2017-10-12T12:00:46.005Z,21.44
2017-10-12T12:01:45.932Z,21.35
2017-10-12T12:02:46.018Z,21.14
2017-10-12T12:03:45.898Z,21.20
2017-10-12T12:04:45.927Z,21.61
2017-10-12T12:05:45.863Z,21.57
2017-10-12T12:06:45.940Z,20.79
2017-10-12T12:07:45.827Z,20.66
2017-10-12T12:08:45.957Z,20.79
2017-10-12T12:09:45.793Z,20.81
2017-10-12T12:10:45.892Z,20.71
2017-10-12T12:11:45.762Z,20.66
2017-10-12T12:12:45.879Z,20.43
2017-10-12T12:13:45.729Z,20.56
2017-10-12T12:14:45.795Z,20.76
2017-10-12T12:15:45.693Z,20.62
2017-10-12T12:18:22.961Z,19.63
2017-10-12T12:19:22.926Z,19.35
2017-10-12T12:21:16.070Z,19.02
2017-10-12T12:22:15.876Z,18.84
2017-10-12T12:24:08.924Z,19.55
2017-10-12T12:25:08.836Z,19.68
2017-10-12T12:27:01.983Z,19.46
2017-10-12T12:28:01.787Z,19.21
2017-10-12T12:29:54.938Z,19.23
2017-10-12T12:30:54.743Z,19.35
2017-10-12T12:32:47.793Z,19.68
2017-10-12T12:33:47.704Z,19.79
2017-10-12T12:35:40.850Z,19.84
2017-10-12T12:36:40.652Z,19.88
2017-10-12T12:38:33.699Z,19.51
2017-10-12T12:39:33.609Z,19.61
2017-10-12T12:41:26.759Z,19.80
2017-10-12T12:42:26.562Z,19.68
2017-10-12T12:44:19.710Z,19.23
2017-10-12T12:45:19.523Z,19.17
2017-10-12T12:47:12.668Z,19.40
2017-10-12T12:48:12.476Z,19.23
2017-10-12T12:50:05.635Z,19.36
2017-10-12T12:51:05.429Z,19.23
2017-10-12T12:52:58.575Z,18.82
2017-10-12T12:53:58.387Z,18.65
2017-10-12T12:55:51.532Z,18.55
2017-10-12T12:56:51.343Z,18.73
2017-10-12T12:58:44.490Z,18.73
2017-10-12T12:59:44.294Z,18.70
2017-10-12T13:01:37.441Z,19.06
2017-10-12T13:02:37.247Z,19.29
2017-10-12T13:04:30.399Z,19.79
2017-10-12T13:07:23.354Z,19.73
2017-10-12T13:08:23.162Z,19.91
2017-10-12T13:10:16.305Z,20.20